Time;durP1;ratioP1;P1;durP2;ratioP2;P2;SDS_P1;SDS_P2;PMS_P1;PMS_P2;Temp;Humidity;BMP_temperature;BMP_pressure;BME280_temperature;BME280_humidity;BME280_pressure;Samples;Min_cycle;Max_cycle;Signal;HPM_P1;HPM_P2
2021/10/21 00:00:53;;;;;;;8.88;4.93;;;15.80;99.90;;;;;;5035541;28;20490;-72
2021/10/21 00:03:19;;;;;;;8.48;5.15;;;15.90;99.90;;;;;;5036664;28;20471;-72
2021/10/21 00:05:44;;;;;;;7.50;5.32;;;15.90;99.90;;;;;;5036870;28;20105;-72
2021/10/21 00:08:10;;;;;;;8.63;4.82;;;15.90;99.90;;;;;;5036573;28;20128;-72
2021/10/21 00:10:35;;;;;;;9.95;5.45;;;15.80;99.90;;;;;;5036701;28;20076;-73
2021/10/21 00:13:01;;;;;;;7.18;4.80;;;15.70;99.90;;;;;;5036781;28;20030;-72
2021/10/21 00:15:27;;;;;;;7.97;5.03;;;15.70;99.90;;;;;;5051568;28;20029;-72
2021/10/21 00:17:53;;;;;;;9.15;4.63;;;15.70;99.90;;;;;;5051509;28;20060;-73
2021/10/21 00:20:18;;;;;;;9.15;4.78;;;15.60;99.90;;;;;;5036376;28;20425;-72
2021/10/21 00:22:44;;;;;;;7.22;4.75;;;15.60;99.90;;;;;;5036566;28;20036;-73
2021/10/21 00:25:10;;;;;;;10.88;4.90;;;15.60;99.90;;;;;;5036511;28;20032;-73
2021/10/21 00:27:35;;;;;;;10.38;4.38;;;15.70;99.90;;;;;;5036509;28;20467;-73
2021/10/21 00:30:01;;;;;;;4.68;3.72;;;15.70;99.90;;;;;;5036092;28;20110;-72
2021/10/21 00:32:27;;;;;;;8.18;4.43;;;15.70;99.90;;;;;;5036126;28;20029;-72
2021/10/21 00:34:53;;;;;;;7.05;4.05;;;15.80;99.90;;;;;;5035801;28;20013;-72
2021/10/21 00:37:18;;;;;;;8.07;4.25;;;15.90;99.90;;;;;;5035131;28;20021;-73
2021/10/21 00:39:44;;;;;;;8.05;4.47;;;15.80;99.90;;;;;;5036242;28;20030;-72
2021/10/21 00:42:09;;;;;;;6.00;4.22;;;15.90;99.90;;;;;;5036197;28;20368;-72
2021/10/21 00:44:35;;;;;;;9.43;4.03;;;15.90;99.90;;;;;;5036161;28;20036;-72
2021/10/21 00:47:01;;;;;;;6.18;3.92;;;15.90;99.90;;;;;;5034697;28;20037;-72
2021/10/21 00:49:26;;;;;;;7.07;3.70;;;16.10;99.90;;;;;;5034267;28;20053;-72
2021/10/21 00:51:52;;;;;;;6.95;3.67;;;16.10;99.90;;;;;;5036030;28;20017;-72
2021/10/21 00:54:18;;;;;;;5.30;3.50;;;16.20;99.90;;;;;;5035454;28;20109;-72
2021/10/21 00:56:46;;;;;;;6.38;3.67;;;16.20;99.90;;;;;;5035903;28;20017;-72
2021/10/21 00:59:12;;;;;;;10.13;4.00;;;16.10;99.90;;;;;;5035626;28;20034;-72
2021/10/21 01:01:38;;;;;;;3.97;3.20;;;16.10;99.90;;;;;;5035844;28;20478;-72
2021/10/21 01:04:04;;;;;;;10.18;4.05;;;15.80;99.90;;;;;;5034375;28;20033;-72
2021/10/21 01:06:30;;;;;;;11.93;4.90;;;15.50;99.90;;;;;;5035775;28;20029;-72
2021/10/21 01:08:56;;;;;;;8.82;5.00;;;15.20;99.90;;;;;;5035644;28;20375;-72
2021/10/21 01:11:22;;;;;;;9.02;4.72;;;15.00;99.90;;;;;;5035682;28;20171;-72
2021/10/21 01:13:48;;;;;;;11.73;5.60;;;14.90;99.90;;;;;;5035633;28;20024;-72
2021/10/21 01:16:15;;;;;;;12.88;5.85;;;14.90;99.90;;;;;;5035553;28;20030;-72
2021/10/21 01:18:42;;;;;;;9.90;6.07;;;14.70;99.90;;;;;;5035266;28;20029;-72
2021/10/21 01:21:10;;;;;;;9.73;5.68;;;14.70;99.90;;;;;;5035536;28;20444;-72
2021/10/21 01:23:37;;;;;;;10.00;5.78;;;14.70;99.90;;;;;;5034889;28;20444;-72
2021/10/21 01:26:06;;;;;;;8.40;5.30;;;14.70;99.90;;;;;;5035365;28;20108;-72
2021/10/21 01:28:32;;;;;;;8.50;5.00;;;14.70;99.90;;;;;;5035293;28;20072;-72
2021/10/21 01:30:57;;;;;;;10.02;5.55;;;14.80;99.90;;;;;;5035279;28;20034;-72
2021/10/21 01:33:23;;;;;;;7.53;5.60;;;14.80;99.90;;;;;;5034966;28;20036;-72
2021/10/21 01:35:48;;;;;;;7.95;4.65;;;14.80;99.90;;;;;;5035214;28;20049;-72
2021/10/21 01:38:14;;;;;;;8.90;5.22;;;14.70;99.90;;;;;;5033708;28;20095;-72
2021/10/21 01:40:40;;;;;;;9.00;4.90;;;14.80;99.90;;;;;;5033983;28;20363;-72
2021/10/21 01:43:05;;;;;;;6.00;4.55;;;14.80;99.90;;;;;;5049831;28;20036;-72
2021/10/21 01:45:32;;;;;;;9.77;4.65;;;14.80;99.90;;;;;;5034745;28;20490;-72
2021/10/21 01:48:00;;;;;;;10.00;4.43;;;14.80;99.90;;;;;;5034979;28;20045;-72
2021/10/21 01:50:28;;;;;;;7.30;4.53;;;14.80;99.90;;;;;;5034141;28;20046;-72
2021/10/21 01:52:55;;;;;;;7.57;4.35;;;14.90;99.90;;;;;;5034612;28;20066;-72
2021/10/21 01:55:21;;;;;;;7.00;3.83;;;14.90;99.90;;;;;;5034521;28;20021;-72
2021/10/21 01:57:47;;;;;;;3.78;3.33;;;15.00;99.90;;;;;;5034510;28;20471;-72
2021/10/21 02:00:15;;;;;;;4.20;2.90;;;15.10;99.90;;;;;;5034500;28;20061;-71
2021/10/21 02:02:44;;;;;;;4.47;2.53;;;15.20;99.90;;;;;;5034419;28;20025;-72
2021/10/21 02:05:11;;;;;;;5.72;2.50;;;15.20;99.90;;;;;;5034738;28;20029;-72
2021/10/21 02:07:36;;;;;;;3.25;2.65;;;15.20;99.90;;;;;;5034680;28;20072;-72
2021/10/21 02:10:05;;;;;;;6.47;2.38;;;15.10;99.90;;;;;;5033976;28;20038;-72
2021/10/21 02:12:31;;;;;;;7.40;2.20;;;15.20;99.90;;;;;;5034530;28;20026;-72
2021/10/21 02:14:56;;;;;;;6.05;2.45;;;15.20;99.90;;;;;;5034531;28;20028;-72
2021/10/21 02:17:23;;;;;;;4.38;2.15;;;15.10;99.90;;;;;;5034468;28;20021;-72
2021/10/21 02:19:49;;;;;;;5.55;2.30;;;15.10;99.90;;;;;;5033486;28;20032;-72
2021/10/21 02:22:15;;;;;;;3.30;2.03;;;15.10;99.90;;;;;;5032691;28;20021;-72
2021/10/21 02:24:40;;;;;;;5.10;1.58;;;15.10;99.90;;;;;;5034355;28;20079;-71
2021/10/21 02:27:06;;;;;;;3.65;1.77;;;15.20;99.90;;;;;;5033785;28;20025;-71
2021/10/21 02:29:32;;;;;;;5.63;2.10;;;15.30;99.90;;;;;;5033094;28;20025;-72
2021/10/21 02:31:57;;;;;;;3.80;1.80;;;15.20;99.90;;;;;;5034278;28;20014;-72
2021/10/21 02:34:23;;;;;;;3.75;1.60;;;15.20;99.90;;;;;;5015998;28;20113;-72
2021/10/21 02:36:48;;;;;;;5.07;1.63;;;15.00;99.90;;;;;;5033946;28;20120;-72
2021/10/21 02:39:14;;;;;;;3.78;1.50;;;15.00;99.90;;;;;;5033857;28;20030;-71
2021/10/21 02:41:39;;;;;;;4.07;1.67;;;15.00;99.90;;;;;;5033887;28;20049;-72
2021/10/21 02:44:05;;;;;;;6.22;1.83;;;14.90;99.90;;;;;;5033815;28;20072;-72
2021/10/21 02:46:31;;;;;;;6.35;2.25;;;14.70;99.90;;;;;;5033801;28;20034;-72
2021/10/21 02:48:57;;;;;;;4.72;1.63;;;14.60;99.90;;;;;;5033634;28;20054;-71
2021/10/21 02:51:22;;;;;;;4.82;1.33;;;14.70;99.90;;;;;;5034017;28;20089;-72
2021/10/21 02:53:48;;;;;;;1.85;1.27;;;14.50;99.90;;;;;;5034024;28;20463;-72
2021/10/21 02:56:14;;;;;;;4.43;1.35;;;14.40;99.90;;;;;;5049599;28;20459;-72
2021/10/21 02:58:40;;;;;;;1.35;1.13;;;14.30;99.90;;;;;;5033679;28;20075;-72
2021/10/21 03:01:05;;;;;;;4.70;1.05;;;14.40;99.90;;;;;;5033913;28;20029;-70
2021/10/21 03:03:31;;;;;;;5.30;1.40;;;14.40;99.90;;;;;;5033899;28;20036;-70
2021/10/21 03:05:56;;;;;;;5.53;1.10;;;14.40;99.90;;;;;;5033611;28;20033;-71
2021/10/21 03:08:22;;;;;;;11.52;1.27;;;14.30;99.90;;;;;;5033567;28;20034;-72
2021/10/21 03:10:48;;;;;;;6.65;1.40;;;14.20;99.90;;;;;;5033497;28;20029;-70
2021/10/21 03:13:14;;;;;;;4.53;1.10;;;14.30;99.90;;;;;;5033803;28;20017;-72
2021/10/21 03:15:40;;;;;;;7.75;1.30;;;14.20;99.90;;;;;;5033821;28;20018;-71
2021/10/21 03:18:05;;;;;;;8.68;1.17;;;14.10;99.90;;;;;;5033772;28;20026;-71
2021/10/21 03:20:32;;;;;;;5.88;1.20;;;13.90;99.90;;;;;;5032606;28;20108;-71
2021/10/21 03:22:58;;;;;;;6.03;1.48;;;;;;;;;;5033737;28;20522;-71
2021/10/21 03:25:24;;;;;;;8.05;1.33;;;;;;;;;;5033418;28;20464;-72
2021/10/21 03:27:50;;;;;;;7.10;1.05;;;;;;;;;;5033425;28;20025;-72
2021/10/21 03:30:16;;;;;;;5.00;1.25;;;;;;;;;;5033317;28;20030;-72
2021/10/21 03:32:42;;;;;;;4.32;1.55;;;;;;;;;;5035907;28;20426;-72
2021/10/21 03:35:08;;;;;;;8.38;1.50;;;;;;;;;;5036084;28;20017;-72
2021/10/21 03:37:34;;;;;;;9.57;1.67;;;;;;;;;;5035982;28;20025;-71
2021/10/21 03:40:00;;;;;;;5.35;2.00;;;;;;;;;;5037123;28;20387;-72
2021/10/21 03:42:26;;;;;;;8.75;1.38;;;;;;;;;;5037053;28;20030;-72
2021/10/21 03:44:56;;;;;;;5.65;1.40;;;;;;;;;;5035885;28;20490;-72
2021/10/21 03:47:22;;;;;;;8.25;1.30;;;;;;;;;;5036971;28;20026;-72
2021/10/21 03:49:50;;;;;;;5.45;1.45;;;;;;;;;;5036512;28;20052;-72
2021/10/21 03:52:17;;;;;;;4.57;1.27;;;;;;;;;;5036888;28;20375;-72
2021/10/21 03:54:43;;;;;;;7.15;1.13;;;;;;;;;;5036826;28;20029;-72
2021/10/21 03:57:09;;;;;;;6.07;1.20;;;;;;;;;;5037124;28;20030;-70
2021/10/21 03:59:35;;;;;;;5.47;1.23;;;;;;;;;;5036129;28;20348;-71
2021/10/21 04:02:01;;;;;;;9.88;1.70;;;;;;;;;;5036761;28;20030;-72
2021/10/21 04:04:27;;;;;;;5.43;1.30;;;;;;;;;;5036967;28;20396;-71
2021/10/21 04:06:53;;;;;;;7.75;1.63;;;;;;;;;;5036623;28;20034;-71
2021/10/21 04:09:18;;;;;;;7.47;1.40;;;12.90;99.90;;;;;;5036523;28;20029;-71
2021/10/21 04:11:44;;;;;;;4.38;1.30;;;12.90;99.90;;;;;;5036812;28;20025;-71
2021/10/21 04:14:09;;;;;;;8.32;1.15;;;12.90;99.90;;;;;;5035329;28;20022;-71
2021/10/21 04:16:35;;;;;;;8.38;1.35;;;12.60;99.90;;;;;;5036452;28;20036;-72
2021/10/21 04:19:00;;;;;;;4.47;1.08;;;12.60;99.90;;;;;;5036376;28;20060;-72
2021/10/21 04:21:26;;;;;;;5.75;1.35;;;12.40;99.90;;;;;;5036584;28;20037;-72
2021/10/21 04:23:54;;;;;;;6.05;1.10;;;12.30;99.90;;;;;;5036597;28;20100;-72
2021/10/21 04:26:19;;;;;;;5.00;1.33;;;12.20;99.90;;;;;;5051357;28;20546;-72
2021/10/21 04:28:45;;;;;;;6.03;1.40;;;12.20;99.90;;;;;;5036212;28;20132;-72
2021/10/21 04:31:10;;;;;;;4.60;1.20;;;12.30;99.90;;;;;;5036385;28;20033;-72
2021/10/21 04:33:36;;;;;;;4.05;1.08;;;12.30;99.90;;;;;;5036407;28;20029;-72
2021/10/21 04:36:01;;;;;;;10.45;1.80;;;12.40;99.90;;;;;;5036371;28;20029;-72
2021/10/21 04:38:27;;;;;;;6.30;1.23;;;12.40;99.90;;;;;;5034870;28;20033;-72
2021/10/21 04:40:53;;;;;;;4.55;1.42;;;12.40;99.90;;;;;;5051902;28;20021;-73
2021/10/21 04:43:18;;;;;;;7.35;1.35;;;12.40;99.90;;;;;;5035907;28;20468;-72
2021/10/21 04:45:44;;;;;;;5.03;1.20;;;12.40;99.90;;;;;;5036149;28;20029;-72
2021/10/21 04:48:10;;;;;;;7.05;1.38;;;12.40;99.90;;;;;;5036134;28;20367;-72
2021/10/21 04:50:35;;;;;;;4.55;1.33;;;12.40;99.90;;;;;;5035293;28;20041;-72
2021/10/21 04:53:01;;;;;;;6.63;1.20;;;12.40;99.90;;;;;;5035771;28;20032;-72
2021/10/21 04:55:27;;;;;;;6.60;1.20;;;12.30;99.90;;;;;;5035471;28;20048;-72
2021/10/21 04:57:52;;;;;;;4.68;1.30;;;12.30;99.90;;;;;;5035969;28;20032;-72
2021/10/21 05:00:19;;;;;;;6.30;1.08;;;12.20;99.90;;;;;;5035931;28;20029;-72
2021/10/21 05:02:45;;;;;;;5.72;1.38;;;12.10;99.90;;;;;;5034732;28;20074;-72
2021/10/21 05:05:12;;;;;;;9.45;1.83;;;12.00;99.90;;;;;;5035823;28;20375;-72
2021/10/21 05:07:38;;;;;;;5.43;1.33;;;11.90;99.90;;;;;;5035504;28;20479;-72
2021/10/21 05:10:05;;;;;;;6.97;1.58;;;11.70;99.90;;;;;;5035377;28;20112;-71
2021/10/21 05:12:30;;;;;;;7.18;1.60;;;11.70;99.90;;;;;;5034217;28;20040;-72
2021/10/21 05:14:56;;;;;;;7.20;1.35;;;11.60;99.90;;;;;;5035649;28;20021;-72
2021/10/21 05:17:22;;;;;;;4.10;1.45;;;11.60;99.90;;;;;;5035321;28;20026;-72
2021/10/21 05:19:48;;;;;;;4.75;1.30;;;11.60;99.90;;;;;;5035247;28;20060;-72
2021/10/21 05:22:13;;;;;;;7.85;1.17;;;11.60;99.90;;;;;;5050288;28;20061;-72
2021/10/21 05:24:39;;;;;;;4.00;1.23;;;11.60;99.90;;;;;;5035130;28;20029;-72
2021/10/21 05:27:05;;;;;;;4.82;1.13;;;11.60;99.90;;;;;;5035343;28;20029;-72
2021/10/21 05:29:30;;;;;;;6.13;1.65;;;11.60;99.90;;;;;;5035269;28;20044;-71
2021/10/21 05:31:56;;;;;;;7.32;1.40;;;11.60;99.90;;;;;;5035009;28;20356;-72
2021/10/21 05:34:22;;;;;;;6.72;1.40;;;11.60;99.90;;;;;;5034685;28;20030;-72
2021/10/21 05:36:48;;;;;;;5.30;1.02;;;11.60;99.90;;;;;;5035213;28;20025;-72
2021/10/21 05:39:14;;;;;;;3.75;1.08;;;;;;;;;;5035151;28;20025;-71
2021/10/21 05:41:41;;;;;;;3.58;1.10;;;11.60;99.90;;;;;;5034859;28;20116;-72
2021/10/21 05:44:06;;;;;;;4.53;1.00;;;11.60;99.90;;;;;;5016803;28;20032;-72
2021/10/21 05:46:32;;;;;;;6.00;1.00;;;11.60;99.90;;;;;;5050412;28;20116;-72
2021/10/21 05:48:58;;;;;;;4.82;1.35;;;11.60;99.90;;;;;;5034533;28;20102;-72
2021/10/21 05:51:24;;;;;;;3.03;0.90;;;11.60;99.90;;;;;;5034399;28;20018;-72
2021/10/21 05:53:49;;;;;;;4.07;1.00;;;11.60;99.90;;;;;;5034066;28;20148;-72
2021/10/21 05:56:15;;;;;;;2.47;0.98;;;11.60;99.90;;;;;;5049300;28;20493;-72
2021/10/21 05:58:41;;;;;;;4.32;1.00;;;11.60;99.90;;;;;;5033305;28;20087;-72
2021/10/21 06:01:07;;;;;;;5.55;1.10;;;11.50;99.90;;;;;;5034384;28;20101;-72
2021/10/21 06:03:36;;;;;;;5.65;1.17;;;11.50;99.90;;;;;;5049447;28;20103;-73
2021/10/21 06:06:04;;;;;;;3.00;1.10;;;11.50;99.90;;;;;;5034413;28;20430;-72
2021/10/21 06:08:30;;;;;;;6.82;1.58;;;11.60;99.90;;;;;;5069979;28;20118;-72
2021/10/21 06:10:55;;;;;;;5.13;1.30;;;11.60;99.90;;;;;;5056780;28;20514;-73
2021/10/21 06:13:21;;;;;;;3.15;1.50;;;11.60;99.90;;;;;;5053906;28;20029;-72
2021/10/21 06:15:46;;;;;;;4.53;1.58;;;11.70;99.90;;;;;;5065162;28;20092;-72
2021/10/21 06:18:13;;;;;;;4.25;1.27;;;11.70;99.90;;;;;;5071066;28;20102;-72
2021/10/21 06:20:41;;;;;;;4.07;1.38;;;11.70;99.90;;;;;;5073735;28;20029;-72
2021/10/21 06:23:07;;;;;;;8.80;1.90;;;11.80;99.90;;;;;;5068960;28;20070;-73
2021/10/21 06:25:33;;;;;;;4.90;1.35;;;11.80;99.90;;;;;;5074059;28;20025;-73
2021/10/21 06:27:59;;;;;;;3.20;1.30;;;11.90;99.90;;;;;;5060910;28;20069;-72
2021/10/21 06:30:25;;;;;;;3.42;1.27;;;11.90;99.90;;;;;;5053172;28;20025;-73
2021/10/21 06:32:50;;;;;;;4.82;1.50;;;12.00;99.90;;;;;;5064811;28;20032;-72
2021/10/21 06:35:16;;;;;;;2.08;1.40;;;12.00;99.90;;;;;;5069506;28;20031;-72
2021/10/21 06:37:46;;;;;;;6.28;1.77;;;12.00;99.90;;;;;;5054304;28;20051;-65
2021/10/21 06:40:13;;;;;;;2.97;2.00;;;11.80;99.90;;;;;;5072995;28;20385;-65
2021/10/21 06:42:38;;;;;;;4.00;1.92;;;11.70;99.90;;;;;;5068945;28;20048;-72
2021/10/21 06:45:04;;;;;;;2.78;1.80;;;11.70;99.90;;;;;;5054064;28;20419;-73
2021/10/21 06:47:30;;;;;;;2.85;1.90;;;11.60;99.90;;;;;;5056393;28;20471;-73
2021/10/21 06:49:56;;;;;;;2.90;1.83;;;11.50;99.90;;;;;;5052683;28;20102;-73
2021/10/21 06:52:21;;;;;;;3.90;2.15;;;11.40;99.90;;;;;;5052559;28;20029;-73
2021/10/21 06:54:47;;;;;;;2.92;2.10;;;11.30;99.90;;;;;;5053458;28;20021;-73
2021/10/21 06:57:13;;;;;;;2.10;1.90;;;11.20;99.90;;;;;;5053731;28;20351;-73
2021/10/21 06:59:38;;;;;;;7.47;2.00;;;11.10;99.90;;;;;;5053187;28;20028;-72
2021/10/21 07:02:04;;;;;;;5.90;2.35;;;11.10;99.90;;;;;;5053049;28;20059;-73
2021/10/21 07:04:30;;;;;;;2.83;2.58;;;11.10;99.90;;;;;;5056538;28;20025;-73
2021/10/21 07:06:59;;;;;;;6.85;2.72;;;11.10;99.90;;;;;;5056781;28;20036;-73
2021/10/21 07:09:24;;;;;;;5.60;4.00;;;11.00;99.90;;;;;;5057325;28;20459;-73
2021/10/21 07:11:50;;;;;;;13.13;5.07;;;11.10;99.90;;;;;;5057524;28;20039;-73
2021/10/21 07:14:16;;;;;;;6.00;5.18;;;11.10;99.90;;;;;;5061054;28;20033;-73
2021/10/21 07:16:42;;;;;;;6.07;5.32;;;11.10;99.90;;;;;;5037578;28;20029;-71
2021/10/21 07:19:07;;;;;;;6.00;5.40;;;11.20;99.90;;;;;;5048540;28;20028;-71
2021/10/21 07:21:33;;;;;;;9.27;6.03;;;11.20;99.90;;;;;;5056987;28;20028;-71
2021/10/21 07:23:59;;;;;;;7.57;5.38;;;11.20;99.90;;;;;;5055964;28;20025;-71
2021/10/21 07:26:24;;;;;;;7.28;4.50;;;11.20;99.90;;;;;;5053158;28;20074;-71
2021/10/21 07:28:50;;;;;;;5.75;3.78;;;11.30;99.90;;;;;;5065562;28;20044;-71
2021/10/21 07:31:18;;;;;;;3.75;3.25;;;11.20;99.90;;;;;;5055062;28;20475;-70
2021/10/21 07:33:43;;;;;;;3.30;0.93;;;11.40;99.90;;;;;;5042468;28;20025;-72
2021/10/21 07:36:09;;;;;;;1.52;0.70;;;11.20;99.90;;;;;;5037380;28;20152;-71
2021/10/21 07:38:35;;;;;;;0.60;0.50;;;11.20;99.90;;;;;;5047312;28;20486;-72
2021/10/21 07:41:00;;;;;;;0.55;0.35;;;11.00;99.90;;;;;;5037059;28;20029;-71
2021/10/21 07:43:26;;;;;;;3.45;0.40;;;10.80;99.90;;;;;;5043682;28;20102;-72
2021/10/21 07:45:52;;;;;;;0.77;0.40;;;10.60;99.90;;;;;;5055891;28;20052;-71
2021/10/21 07:48:17;;;;;;;3.13;0.40;;;10.50;99.90;;;;;;5074077;28;20025;-71
2021/10/21 07:50:45;;;;;;;0.47;0.30;;;10.40;99.90;;;;;;5076633;28;20028;-71
2021/10/21 07:53:11;;;;;;;1.40;0.40;;;10.40;99.90;;;;;;5060221;28;20104;-71
2021/10/21 07:55:37;;;;;;;1.45;0.47;;;10.40;99.90;;;;;;5055926;28;20048;-71
2021/10/21 07:58:03;;;;;;;5.70;3.15;;;10.30;99.90;;;;;;5058154;28;20108;-72
2021/10/21 08:00:29;;;;;;;0.93;0.52;;;10.30;99.90;;;;;;5037197;28;20041;-71
2021/10/21 08:02:55;;;;;;;1.52;0.50;;;10.30;99.90;;;;;;5053404;28;20030;-71
2021/10/21 08:05:21;;;;;;;4.22;0.77;;;10.20;99.90;;;;;;5055379;28;20068;-71
2021/10/21 08:07:47;;;;;;;1.25;0.65;;;10.20;99.90;;;;;;5056578;28;20498;-71
2021/10/21 08:10:17;;;;;;;5.03;1.05;;;10.20;99.90;;;;;;5056509;28;20071;-71
2021/10/21 08:12:42;;;;;;;4.88;0.85;;;10.10;99.90;;;;;;5055461;28;20021;-71
2021/10/21 08:15:10;;;;;;;3.45;0.90;;;10.20;99.90;;;;;;5062051;28;20151;-71
2021/10/21 08:17:37;;;;;;;5.72;1.10;;;10.10;99.90;;;;;;5055137;28;20029;-71
2021/10/21 08:20:03;;;;;;;3.13;1.05;;;10.10;99.90;;;;;;5063413;28;20364;-70
2021/10/21 08:22:29;;;;;;;3.28;1.13;;;10.20;99.90;;;;;;5062124;28;20099;-71
2021/10/21 08:24:55;;;;;;;2.65;0.70;;;10.20;99.90;;;;;;5044444;28;20025;-71
2021/10/21 08:27:21;;;;;;;4.65;1.20;;;10.30;99.90;;;;;;5056298;28;20463;-71
2021/10/21 08:29:46;;;;;;;2.08;1.00;;;10.40;99.90;;;;;;5059595;28;20109;-71
2021/10/21 08:32:12;;;;;;;7.00;1.40;;;10.40;99.90;;;;;;5056299;28;20093;-71
2021/10/21 08:34:39;;;;;;;5.90;1.67;;;10.50;99.90;;;;;;5055530;28;20649;-71
2021/10/21 08:37:06;;;;;;;7.15;1.45;;;10.50;99.90;;;;;;5056686;28;20028;-71
2021/10/21 08:39:34;;;;;;;8.07;1.92;;;10.60;99.90;;;;;;5055591;28;20044;-71
2021/10/21 08:42:00;;;;;;;4.05;1.30;;;10.70;99.90;;;;;;5047764;28;20025;-71
2021/10/21 08:44:25;;;;;;;12.32;1.67;;;10.80;99.90;;;;;;5055863;28;20504;-71
2021/10/21 08:46:53;;;;;;;6.47;1.90;;;10.70;99.90;;;;;;5053990;28;20029;-71
2021/10/21 08:49:19;;;;;;;10.00;2.03;;;10.70;99.90;;;;;;5058668;28;20133;-71
2021/10/21 08:51:46;;;;;;;7.03;2.70;;;10.80;99.90;;;;;;5054890;28;20493;-71
2021/10/21 08:54:12;;;;;;;10.15;3.08;;;;;;;;;;5054999;28;20025;-71
2021/10/21 08:56:38;;;;;;;11.93;3.47;;;11.20;99.90;;;;;;5054828;28;20062;-72
2021/10/21 08:59:04;;;;;;;8.27;2.63;;;11.10;99.90;;;;;;5054995;28;20057;-72
2021/10/21 09:01:41;;;;;;;8.98;2.50;;;11.00;99.90;;;;;;5064184;28;20056;-72
2021/10/21 09:09:26;;;;;;;9.10;2.53;;;11.30;99.90;;;;;;5052547;28;20033;-72
2021/10/21 09:12:10;;;;;;;5.70;2.30;;;11.30;99.90;;;;;;5044636;28;20017;-72
2021/10/21 09:14:41;;;;;;;12.40;3.47;;;11.50;99.90;;;;;;5039887;28;20056;-72
2021/10/21 09:17:09;;;;;;;12.48;3.40;;;11.50;99.90;;;;;;5053867;28;20028;-72
2021/10/21 09:19:36;;;;;;;14.90;2.78;;;11.30;99.90;;;;;;5054255;28;20029;-72
2021/10/21 09:22:04;;;;;;;10.63;2.70;;;11.30;99.90;;;;;;5052423;28;20070;-74
2021/10/21 09:24:35;;;;;;;13.85;2.97;;;11.60;99.90;;;;;;5036479;28;20025;-72
2021/10/21 09:27:07;;;;;;;11.35;2.53;;;12.00;99.90;;;;;;5056387;28;20386;-71
2021/10/21 09:29:36;;;;;;;14.75;3.00;;;12.20;99.90;;;;;;5042575;28;20036;-71
2021/10/21 09:32:07;;;;;;;14.35;3.17;;;12.30;99.90;;;;;;5040005;28;20447;-72
2021/10/21 09:34:54;;;;;;;16.23;3.55;;;12.30;99.90;;;;;;5058470;28;20017;-72
2021/10/21 09:37:24;;;;;;;14.80;3.60;;;12.30;99.90;;;;;;5053431;28;20516;-72
2021/10/21 09:39:52;;;;;;;15.63;3.92;;;12.50;99.90;;;;;;5060140;28;20029;-71
2021/10/21 09:42:24;;;;;;;16.70;3.80;;;12.70;99.90;;;;;;5052825;28;20058;-72
2021/10/21 09:45:08;;;;;;;12.90;4.03;;;12.80;99.90;;;;;;5063098;28;20025;-72
2021/10/21 09:47:37;;;;;;;13.43;3.35;;;12.80;99.90;;;;;;5050941;28;20036;-72
2021/10/21 09:50:15;;;;;;;18.05;4.60;;;;;;;;;;5055098;28;20037;-68
2021/10/21 09:52:40;;;;;;;12.52;3.88;;;12.40;99.90;;;;;;5073356;28;20021;-70
2021/10/21 09:55:10;;;;;;;12.75;3.75;;;12.20;99.90;;;;;;5066234;28;20025;-70
2021/10/21 09:57:35;;;;;;;11.80;3.47;;;12.20;99.90;;;;;;5066380;28;20051;-70
2021/10/21 10:00:05;;;;;;;13.77;3.05;;;13.00;99.90;;;;;;5049122;28;20029;-69
2021/10/21 10:02:32;;;;;;;16.90;3.33;;;13.20;99.90;;;;;;5041164;28;20016;-70
2021/10/21 10:05:03;;;;;;;15.50;3.17;;;13.10;99.90;;;;;;5048626;28;20443;-70
2021/10/21 10:07:30;;;;;;;11.68;3.60;;;12.90;99.90;;;;;;5052741;28;20041;-70
2021/10/21 10:09:59;;;;;;;10.85;3.28;;;12.90;99.90;;;;;;5041412;28;20469;-70
2021/10/21 10:12:32;;;;;;;13.93;3.72;;;13.30;99.90;;;;;;5054629;28;20044;-68
2021/10/21 10:14:59;;;;;;;10.48;3.20;;;13.00;99.90;;;;;;5051122;28;20149;-69
2021/10/21 10:17:27;;;;;;;11.68;3.22;;;12.90;99.90;;;;;;5052686;28;20036;-68
2021/10/21 10:19:53;;;;;;;10.23;3.30;;;12.80;99.90;;;;;;5041632;28;20471;-68
2021/10/21 10:22:24;;;;;;;13.48;3.05;;;;;;;;;;5053705;28;20040;-68
2021/10/21 10:24:50;;;;;;;11.93;3.42;;;12.70;99.90;;;;;;5067152;28;20028;-68
2021/10/21 10:27:25;;;;;;;10.80;3.30;;;12.60;99.90;;;;;;5067467;28;20021;-68
2021/10/21 10:29:51;;;;;;;10.38;3.15;;;12.60;99.90;;;;;;5052684;28;20036;-69
2021/10/21 10:32:40;;;;;;;10.38;3.17;;;12.60;99.90;;;;;;5057646;28;20386;-68
2021/10/21 10:35:08;;;;;;;10.00;3.17;;;12.60;99.90;;;;;;5060869;28;20032;-68
2021/10/21 10:37:38;;;;;;;9.70;2.75;;;12.60;99.90;;;;;;5053666;28;20485;-68
2021/10/21 10:40:04;;;;;;;12.38;3.03;;;12.70;99.90;;;;;;5054700;28;20037;-68
2021/10/21 10:45:10;;;;;;;10.50;2.85;;;12.60;99.90;;;;;;5092735;28;20680;-67
2021/10/21 10:47:54;;;;;;;6.03;2.80;;;12.50;99.90;;;;;;5085195;28;20470;-67
2021/10/21 10:53:05;;;;;;;12.75;3.28;;;12.30;99.90;;;;;;5123065;27;20426;-68
2021/10/21 10:55:49;;;;;;;11.10;3.53;;;12.30;99.90;;;;;;5119308;28;20015;-68
2021/10/21 10:58:23;;;;;;;11.85;3.10;;;12.20;99.90;;;;;;5112158;28;20027;-69
2021/10/21 11:00:56;;;;;;;12.63;3.60;;;12.10;99.90;;;;;;5108593;28;20055;-68
2021/10/21 11:03:41;;;;;;;13.57;2.95;;;12.00;99.90;;;;;;5097145;28;20375;-69
2021/10/21 11:06:15;;;;;;;11.32;3.42;;;11.90;99.90;;;;;;5115344;28;20023;-68
2021/10/21 11:09:02;;;;;;;11.30;3.63;;;11.80;99.90;;;;;;5090898;28;20028;-70
2021/10/21 11:11:57;;;;;;;9.82;3.75;;;11.50;99.90;;;;;;5117060;28;20027;-69
2021/10/21 11:17:13;;;;;;;11.20;4.05;;;11.10;99.90;;;;;;5119784;27;20792;-69
2021/10/21 11:19:45;;;;;;;10.48;3.40;;;11.10;99.90;;;;;;5126662;28;20030;-68
2021/10/21 11:22:24;;;;;;;7.13;3.05;;;10.90;99.90;;;;;;5111320;28;20027;-69
2021/10/21 11:27:32;;;;;;;10.20;3.47;;;10.90;99.90;;;;;;5091428;28;20102;-69
2021/10/21 11:30:07;;;;;;;8.63;2.97;;;10.90;99.90;;;;;;5084781;28;20017;-67
2021/10/21 11:32:35;;;;;;;8.90;2.85;;;10.90;99.90;;;;;;5071093;28;20504;-68
2021/10/21 11:35:06;;;;;;;11.27;2.65;;;10.90;99.90;;;;;;5089477;28;20106;-68
2021/10/21 11:37:36;;;;;;;10.82;2.40;;;10.90;99.90;;;;;;5111626;28;20030;-67
2021/10/21 11:40:03;;;;;;;11.15;2.90;;;11.00;99.90;;;;;;5093229;28;20111;-68
2021/10/21 11:42:29;;;;;;;11.32;2.60;;;11.00;99.90;;;;;;5090461;28;20070;-69
2021/10/21 11:45:05;;;;;;;11.10;2.30;;;11.10;99.90;;;;;;5090418;28;20050;-69
2021/10/21 11:47:30;;;;;;;8.57;2.97;;;11.10;99.90;;;;;;5091114;28;20024;-68
2021/10/21 11:49:57;;;;;;;9.43;2.15;;;11.20;99.90;;;;;;5085328;28;20388;-68
2021/10/21 11:52:36;;;;;;;6.78;2.30;;;11.20;99.90;;;;;;5092906;28;20038;-69
2021/10/21 11:55:02;;;;;;;4.85;2.05;;;11.30;99.90;;;;;;5089769;28;20373;-69
2021/10/21 11:57:33;;;;;;;6.70;2.20;;;11.40;99.90;;;;;;5090550;28;20531;-68
2021/10/21 11:59:59;;;;;;;6.50;1.90;;;11.50;99.90;;;;;;5085773;28;20074;-68
2021/10/21 12:02:28;;;;;;;7.05;2.17;;;11.50;99.90;;;;;;5081598;28;20028;-67
2021/10/21 12:04:54;;;;;;;8.23;2.20;;;;;;;;;;5088529;28;20152;-69
2021/10/21 12:07:21;;;;;;;8.95;2.10;;;11.60;99.90;;;;;;5088117;28;20068;-69
2021/10/21 12:09:47;;;;;;;9.05;2.58;;;12.10;99.90;;;;;;5089859;28;20016;-68
2021/10/21 12:12:15;;;;;;;7.55;2.42;;;12.20;99.90;;;;;;5089846;28;20107;-69
2021/10/21 12:14:44;;;;;;;9.60;2.40;;;12.50;99.90;;;;;;5088222;28;20039;-68
2021/10/21 12:17:11;;;;;;;6.20;2.40;;;12.40;99.90;;;;;;5090345;28;20031;-68
2021/10/21 12:19:39;;;;;;;6.50;2.10;;;12.30;99.90;;;;;;5091722;28;20117;-68
2021/10/21 12:22:18;;;;;;;6.53;2.83;;;12.10;99.90;;;;;;5094081;28;20458;-68
2021/10/21 12:24:45;;;;;;;7.18;2.22;;;12.00;99.90;;;;;;5089726;28;20033;-68
2021/10/21 12:27:18;;;;;;;5.65;2.60;;;12.40;99.90;;;;;;5088140;28;20141;-68
2021/10/21 12:29:45;;;;;;;10.27;2.42;;;12.50;99.90;;;;;;5096229;28;20480;-67
2021/10/21 12:32:14;;;;;;;5.88;1.90;;;12.40;99.90;;;;;;5092347;28;20478;-68
2021/10/21 12:34:40;;;;;;;7.43;2.30;;;12.20;99.90;;;;;;5089909;28;20107;-68
2021/10/21 12:37:15;;;;;;;6.65;2.20;;;12.20;99.90;;;;;;5085654;28;20478;-68
2021/10/21 12:39:41;;;;;;;6.05;1.85;;;12.20;99.90;;;;;;5076220;28;20039;-68
2021/10/21 12:42:09;;;;;;;4.05;1.60;;;12.40;99.90;;;;;;5078561;28;20390;-68
2021/10/21 12:44:40;;;;;;;6.35;1.60;;;12.40;99.90;;;;;;5081274;28;20031;-68
2021/10/21 12:47:19;;;;;;;4.45;1.45;;;12.50;99.90;;;;;;5070435;28;20043;-69
2021/10/21 12:50:07;;;;;;;3.63;1.38;;;12.70;99.90;;;;;;5058128;28;20048;-68
2021/10/21 12:52:38;;;;;;;4.40;1.40;;;13.10;99.90;;;;;;5074226;28;20016;-68
2021/10/21 12:55:21;;;;;;;7.03;1.30;;;;;;;;;;5073417;28;20025;-69
2021/10/21 12:57:54;;;;;;;2.20;1.10;;;12.70;99.90;;;;;;5074688;28;20033;-68
2021/10/21 13:00:44;;;;;;;2.60;1.10;;;12.50;99.90;;;;;;5075202;28;20024;-68
2021/10/21 13:03:14;;;;;;;3.78;0.80;;;12.20;99.90;;;;;;5084488;28;20073;-68
2021/10/21 13:05:40;;;;;;;3.00;0.65;;;12.20;99.90;;;;;;5074821;28;20032;-69
2021/10/21 13:08:07;;;;;;;2.78;1.00;;;12.10;99.90;;;;;;5075247;28;20031;-68
2021/10/21 13:10:39;;;;;;;4.80;1.15;;;12.10;99.90;;;;;;5068825;28;20028;-68